Terminal Aerodrome Forecast
Issued by NWS Paducah, KY

Home | Current Version | Previous Version | Text Only | Print | Product List | Glossary On
Versions: 1 2 3 4 5 6 7 8 9 10 11 12 13 14 15
000
FTUS43 KPAH 242324
TAFPAH
TAF
KPAH 242324Z 2500/2524 32009KT P6SM FEW060 SCT250
     FM250300 27007KT P6SM SCT090
     FM251400 30009KT P6SM SCT020
     FM251800 27008G18KT P6SM SCT035=

USA.gov is the U.S. government's official web portal to all federal, state and local government web resources and services.